<?xml version="1.0"?>
<gpx xmlns:xsi="http://www.w3.org/2001/XMLSchema-instance" xmlns:xsd="http://www.w3.org/2001/XMLSchema" version="1.1" creator="Quo v2" xmlns="http://www.topografix.com/GPX/1/1">
  <metadata>
    <desc>GPX file generated with Quo.</desc>
    <link href="http://www.mapyx.com">
      <text>Mapyx</text>
    </link>
    <time>2014-04-23T23:52:36.7978674+01:00</time>
  </metadata>
  <trk>
    <name>Track from Segments</name>
    <trkseg>
      <trkpt lat="53.8486229758854" lon="-1.83732324303836">
        <ele>90.6847360761778</ele>
        <time>2009-12-23T12:51:36</time>
        <name>WPT 089</name>
        <desc />
      </trkpt>
      <trkpt lat="53.8482188234362" lon="-1.83755281417641">
        <ele>92.9347360761778</ele>
        <time>2009-12-23T12:51:36</time>
        <name>WPT 088</name>
        <desc />
      </trkpt>
      <trkpt lat="53.8480577784062" lon="-1.83810064564223">
        <ele>93.8347360761778</ele>
        <time>2009-12-23T12:51:36</time>
        <name>WPT 087</name>
        <desc />
      </trkpt>
      <trkpt lat="53.8476267831645" lon="-1.83842151000103">
        <ele>95.0911498913834</ele>
        <time>2009-12-23T12:51:36</time>
        <name>WPT 086</name>
        <desc />
      </trkpt>
      <trkpt lat="53.8466564438186" lon="-1.8386988413554">
        <ele>95.1681560568371</ele>
        <time>2009-12-23T12:51:36</time>
        <name>WPT 085</name>
        <desc />
      </trkpt>
      <trkpt lat="53.8461853267118" lon="-1.83926303542551">
        <ele>93.4555336335742</ele>
        <time>2009-12-23T12:51:36</time>
        <name>WPT 084</name>
        <desc />
      </trkpt>
      <trkpt lat="53.8456276610464" lon="-1.83896118476242">
        <ele>90.5221078313342</ele>
        <time>2009-12-23T12:51:36</time>
        <name>WPT 083</name>
        <desc />
      </trkpt>
      <trkpt lat="53.845052059373" lon="-1.83868980933041">
        <ele>87.0621208104244</ele>
        <time>2014-04-23T23:09:42.8536462+01:00</time>
        <name>WPT 082 - WPT 083</name>
        <desc />
      </trkpt>
      <trkpt lat="53.8446030658545" lon="-1.83899551466651">
        <ele>83.0614109410306</ele>
        <time>2014-04-23T23:10:09.9541963+01:00</time>
        <name>WPT 082 - WPT 082 - WPT 083</name>
        <desc />
      </trkpt>
      <trkpt lat="53.8443880452348" lon="-1.83951310195167">
        <ele>80.567318170337</ele>
        <time>2009-12-23T12:51:36</time>
        <name>WPT 082</name>
        <desc />
      </trkpt>
      <trkpt lat="53.8438847151827" lon="-1.83951502684328">
        <ele>79.0508433511149</ele>
        <time>2014-04-23T23:09:57.5614875+01:00</time>
        <name>WPT 081 - WPT 082</name>
        <desc />
      </trkpt>
      <trkpt lat="53.8436687175266" lon="-1.83930307203382">
        <ele>78.4631077410493</ele>
        <time>2014-04-23T23:10:41.4859998+01:00</time>
        <name>WPT 081 - WPT 081 - WPT 082</name>
        <desc />
      </trkpt>
      <trkpt lat="53.8419084010312" lon="-1.84031287997555">
        <ele>85.2385206475586</ele>
        <time>2009-12-23T12:51:36</time>
        <name>WPT 081</name>
        <desc />
      </trkpt>
      <trkpt lat="53.8420177489282" lon="-1.84143711833438">
        <ele>85.553748656187</ele>
        <time>2014-04-23T23:10:54.4037387+01:00</time>
        <name>WPT 080 - WPT 081</name>
        <desc />
      </trkpt>
      <trkpt lat="53.8422880318198" lon="-1.84192243732029">
        <ele>84.5700946534428</ele>
        <time>2014-04-23T23:11:09.0625771+01:00</time>
        <name>WPT 080 - WPT 080 - WPT 081</name>
        <desc />
      </trkpt>
      <trkpt lat="53.8428448092207" lon="-1.84155558011998">
        <ele>82.7385029898118</ele>
        <time>2014-04-23T23:11:25.670527+01:00</time>
        <name>WPT 080 - WPT 080 - WPT 080 - WPT 081</name>
        <desc />
      </trkpt>
      <trkpt lat="53.8432406037947" lon="-1.84179726139281">
        <ele>82.7684186686419</ele>
        <time>2014-04-23T23:11:33.3159643+01:00</time>
        <name>WPT 080 - WPT 080 - WPT 080 - WPT 080 - WPT 081</name>
        <desc />
      </trkpt>
      <trkpt lat="53.8435474357647" lon="-1.84273841705227">
        <ele>85.2131799821836</ele>
        <time>2014-04-23T23:11:42.0394633+01:00</time>
        <name>WPT 080 - WPT 080 - WPT 080 - WPT 080 - WPT 080 - WPT 081</name>
        <desc />
      </trkpt>
      <trkpt lat="53.8443760412203" lon="-1.84404241608294">
        <ele>92.9989503722719</ele>
        <time>2014-04-23T23:11:51.2709913+01:00</time>
        <name>WPT 080 - WPT 080 - WPT 080 - WPT 080 - WPT 080 - WPT 080 - WPT 081</name>
        <desc />
      </trkpt>
      <trkpt lat="53.8450952422082" lon="-1.84416133633308">
        <ele>95.6894284089513</ele>
        <time>2014-04-23T23:11:59.5494648+01:00</time>
        <name>WPT 080 - WPT 080 - WPT 080 - WPT 080 - WPT 080 - WPT 080 - WPT 080 - WPT 081</name>
        <desc />
      </trkpt>
      <trkpt lat="53.845473370422" lon="-1.84464630913492">
        <ele>101.909306103295</ele>
        <time>2014-04-23T23:12:26.9380313+01:00</time>
        <name>WPT 080 - WPT 080 - WPT 080 - WPT 080 - WPT 080 - WPT 080 - WPT 080 - WPT 080 - WPT 081</name>
        <desc />
      </trkpt>
      <trkpt lat="53.8463366936152" lon="-1.84500790316817">
        <ele>108.021190163798</ele>
        <time>2014-04-23T23:12:35.7935378+01:00</time>
        <name>WPT 080 - WPT 080 - WPT 080 - WPT 080 - WPT 080 - WPT 080 - WPT 080 - WPT 080 - WPT 080 - WPT 081</name>
        <desc />
      </trkpt>
      <trkpt lat="53.8468037964146" lon="-1.84479338109377">
        <ele>106.997874950898</ele>
        <time>2014-04-23T23:12:43.6179854+01:00</time>
        <name>WPT 080 - WPT 080 - WPT 080 - WPT 080 - WPT 080 - WPT 080 - WPT 080 - WPT 080 - WPT 080 - WPT 080 - WPT 081</name>
        <desc />
      </trkpt>
      <trkpt lat="53.8467843603002" lon="-1.84366867086081">
        <ele>91.2623923181031</ele>
        <time>2009-12-23T12:51:36</time>
        <name>WPT 080</name>
        <desc />
      </trkpt>
      <trkpt lat="53.8467834871676" lon="-1.84299988474769">
        <ele>87.5901129416191</ele>
        <time>2009-12-23T12:51:36</time>
        <name>WPT 079</name>
        <desc />
      </trkpt>
      <trkpt lat="53.8469624508518" lon="-1.84239122220001">
        <ele>88.4359386139927</ele>
        <time>2009-12-23T12:51:36</time>
        <name>WPT 078</name>
        <desc />
      </trkpt>
      <trkpt lat="53.8473572844945" lon="-1.84190334020532">
        <ele>89.5332419331427</ele>
        <time>2009-12-23T12:51:36</time>
        <name>WPT 077</name>
        <desc />
      </trkpt>
      <trkpt lat="53.8480760866289" lon="-1.84171822910413">
        <ele>91.0778085118415</ele>
        <time>2009-12-23T12:51:36</time>
        <name>WPT 076</name>
        <desc />
      </trkpt>
      <trkpt lat="53.8484540645737" lon="-1.84208161196022">
        <ele>93.1101310015683</ele>
        <time>2009-12-23T12:51:36</time>
        <name>WPT 075</name>
        <desc />
      </trkpt>
      <trkpt lat="53.8489214821834" lon="-1.84211025376963">
        <ele>94.2949335868647</ele>
        <time>2014-04-23T23:13:46.569586+01:00</time>
        <name>WPT 074 - WPT 075</name>
        <desc />
      </trkpt>
      <trkpt lat="53.8496764366988" lon="-1.84207701111585">
        <ele>93.6958904299533</ele>
        <time>2014-04-23T23:13:56.990182+01:00</time>
        <name>WPT 074 - WPT 074 - WPT 075</name>
        <desc />
      </trkpt>
      <trkpt lat="53.8501079020994" lon="-1.84210578898262">
        <ele>92.4000036718821</ele>
        <time>2014-04-23T23:14:04.6106179+01:00</time>
        <name>WPT 074 - WPT 074 - WPT 074 - WPT 075</name>
        <desc />
      </trkpt>
      <trkpt lat="53.8507169571213" lon="-1.84049217135259">
        <ele>83.2084836844695</ele>
        <time>2009-12-23T12:51:36</time>
        <name>WPT 074</name>
        <desc />
      </trkpt>
      <trkpt lat="53.851099858" lon="-1.840396393">
        <ele>82.2051093680026</ele>
        <time>2009-12-23T12:51:36</time>
        <name>WPT 073</name>
        <desc />
      </trkpt>
      <trkpt lat="53.851283048" lon="-1.840040743">
        <ele>82.3479883877236</ele>
        <time>2009-12-23T12:51:36</time>
        <name>WPT 072</name>
        <desc />
      </trkpt>
      <trkpt lat="53.851517672" lon="-1.838841501">
        <ele>84.8565821697278</ele>
        <time>2009-12-23T12:51:36</time>
        <name>WPT 071</name>
        <desc />
      </trkpt>
      <trkpt lat="53.851569819" lon="-1.838663698">
        <ele>85.5732752776036</ele>
        <time>2009-12-23T12:51:36</time>
        <name>WPT 070</name>
        <desc />
      </trkpt>
      <trkpt lat="53.852159596" lon="-1.838173234">
        <ele>88.1015007054269</ele>
        <time>2009-12-23T12:51:36</time>
        <name>WPT 069</name>
        <desc />
      </trkpt>
      <trkpt lat="53.852565558" lon="-1.837572542">
        <ele>91.5040315614315</ele>
        <time>2009-12-23T12:51:36</time>
        <name>WPT 068</name>
        <desc />
      </trkpt>
      <trkpt lat="53.852893256" lon="-1.837304923">
        <ele>92.174829361385</ele>
        <time>2009-12-23T12:51:36</time>
        <name>WPT 067</name>
        <desc />
      </trkpt>
      <trkpt lat="53.853208016" lon="-1.837237146">
        <ele>91.7940596381888</ele>
        <time>2009-12-23T12:51:36</time>
        <name>WPT 066</name>
        <desc />
      </trkpt>
      <trkpt lat="53.854014135" lon="-1.837458259">
        <ele>89.3767513479139</ele>
        <time>2009-12-23T12:51:36</time>
        <name>WPT 065</name>
        <desc />
      </trkpt>
      <trkpt lat="53.855361201" lon="-1.838160883">
        <ele>89.5361664715846</ele>
        <time>2009-12-23T12:51:36</time>
        <name>WPT 064</name>
        <desc />
      </trkpt>
      <trkpt lat="53.85631911" lon="-1.838268249">
        <ele>94.7969394882272</ele>
        <time>2009-12-23T12:51:36</time>
        <name>WPT 063</name>
        <desc />
      </trkpt>
      <trkpt lat="53.856410462" lon="-1.837846213">
        <ele>98.5140039600436</ele>
        <time>2009-12-23T12:51:36</time>
        <name>WPT 062</name>
        <desc />
      </trkpt>
      <trkpt lat="53.856658997" lon="-1.837312505">
        <ele>104.088795377167</ele>
        <time>2009-12-23T12:51:36</time>
        <name>WPT 061</name>
        <desc />
      </trkpt>
      <trkpt lat="53.856080234" lon="-1.836249519">
        <ele>107.386262059789</ele>
        <time>2009-12-23T12:51:36</time>
        <name>WPT 060</name>
        <desc />
      </trkpt>
      <trkpt lat="53.85569879" lon="-1.835585151">
        <ele>110.091403692278</ele>
        <time>2009-12-23T12:51:36</time>
        <name>WPT 059</name>
        <desc />
      </trkpt>
      <trkpt lat="53.855671882" lon="-1.83509702">
        <ele>112.382461446747</ele>
        <time>2009-12-23T12:51:36</time>
        <name>WPT 058</name>
        <desc />
      </trkpt>
      <trkpt lat="53.856379741" lon="-1.834561618">
        <ele>118.85479973305</ele>
        <time>2009-12-23T12:51:36</time>
        <name>WPT 057</name>
        <desc />
      </trkpt>
      <trkpt lat="53.856917059" lon="-1.834159998">
        <ele>123.831521083009</ele>
        <time>2009-12-23T12:51:36</time>
        <name>WPT 056</name>
        <desc />
      </trkpt>
      <trkpt lat="53.856535138" lon="-1.833096141">
        <ele>125.919609302679</ele>
        <time>2009-12-23T12:51:36</time>
        <name>WPT 055</name>
        <desc />
      </trkpt>
      <trkpt lat="53.856717314" lon="-1.832030044">
        <ele>131.145803002157</ele>
        <time>2009-12-23T12:51:36</time>
        <name>WPT 054</name>
        <desc />
      </trkpt>
      <trkpt lat="53.856202687" lon="-1.829968199">
        <ele>138.81003011687</ele>
        <time>2009-12-23T12:51:36</time>
        <name>WPT 053</name>
        <desc />
      </trkpt>
      <trkpt lat="53.856298507" lon="-1.828917867">
        <ele>144.860876614078</ele>
        <time>2009-12-23T12:51:36</time>
        <name>WPT 052</name>
        <desc />
      </trkpt>
      <trkpt lat="53.8562398" lon="-1.828392258">
        <ele>147.102248639758</ele>
        <time>2009-12-23T12:51:36</time>
        <name>WPT 051</name>
        <desc />
      </trkpt>
      <trkpt lat="53.856160516" lon="-1.827993089">
        <ele>149.28085884122</ele>
        <time>2009-12-23T12:51:36</time>
        <name>WPT 050</name>
        <desc />
      </trkpt>
      <trkpt lat="53.856173061" lon="-1.827593544">
        <ele>153.383731056896</ele>
        <time>2009-12-23T12:51:36</time>
        <name>WPT 049</name>
        <desc />
      </trkpt>
      <trkpt lat="53.856250784" lon="-1.826905297">
        <ele>161.08830481769</ele>
        <time>2009-12-23T12:51:36</time>
        <name>WPT 048</name>
        <desc />
      </trkpt>
      <trkpt lat="53.8558561913885" lon="-1.82615135810502">
        <ele>167.914440941117</ele>
        <time>2009-12-23T12:51:36</time>
        <name>WPT 039</name>
        <desc />
      </trkpt>
      <trkpt lat="53.8555370728746" lon="-1.82612227481955">
        <ele>167.077245672679</ele>
        <time>2009-12-23T12:51:36</time>
        <name>WPT 038</name>
        <desc />
      </trkpt>
      <trkpt lat="53.855051058486" lon="-1.82566820666412">
        <ele>172.899361807954</ele>
        <time>2009-12-23T12:51:36</time>
        <name>WPT 030</name>
        <desc />
      </trkpt>
      <trkpt lat="53.854772945" lon="-1.825606158">
        <ele>173.320270167676</ele>
        <time>2009-12-23T12:51:36</time>
        <name>WPT 029</name>
        <desc />
      </trkpt>
      <trkpt lat="53.8544033908997" lon="-1.8253060377075">
        <ele>177.459361807954</ele>
        <time>2009-12-23T12:51:36</time>
        <name>WPT 028</name>
        <desc />
      </trkpt>
      <trkpt lat="53.8539981323266" lon="-1.82476043981169">
        <ele>182.068738314436</ele>
        <time>2009-12-23T12:51:36</time>
        <name>WPT 027</name>
        <desc />
      </trkpt>
      <trkpt lat="53.8519487313403" lon="-1.82467779064701">
        <ele>172.084002238258</ele>
        <time>2009-12-23T12:51:36</time>
        <name>WPT 026</name>
        <desc />
      </trkpt>
      <trkpt lat="53.850707851188" lon="-1.8243181477343">
        <ele>162.269879212163</ele>
        <time>2009-12-23T12:51:36</time>
        <name>WPT 025</name>
        <desc />
      </trkpt>
      <trkpt lat="53.8509518594823" lon="-1.82522920232425">
        <ele>156.005217340193</ele>
        <time>2014-04-23T23:01:39.8690211+01:00</time>
        <name>WPT 024 - WPT 025</name>
        <desc />
      </trkpt>
      <trkpt lat="53.8512081107057" lon="-1.82541042825045">
        <ele>156.219759641304</ele>
        <time>2014-04-23T23:02:14.396996+01:00</time>
        <name>WPT 024 - WPT 024 - WPT 025</name>
        <desc />
      </trkpt>
      <trkpt lat="53.8517620400043" lon="-1.82609231649284">
        <ele>149.940025109124</ele>
        <time>2009-12-23T12:51:36</time>
        <name>WPT 024</name>
        <desc />
      </trkpt>
      <trkpt lat="53.8503601730742" lon="-1.82628054011726">
        <ele>132.038971226575</ele>
        <time>2009-12-23T12:51:36</time>
        <name>WPT 023</name>
        <desc />
      </trkpt>
      <trkpt lat="53.850743903" lon="-1.827509697">
        <ele>122.599922827072</ele>
        <time>2009-12-23T12:51:36</time>
        <name>WPT 022</name>
        <desc />
      </trkpt>
      <trkpt lat="53.850413159" lon="-1.828458831">
        <ele>110.972693489316</ele>
        <time>2009-12-23T12:51:36</time>
        <name>WPT 021</name>
        <desc />
      </trkpt>
      <trkpt lat="53.850371947" lon="-1.828669685">
        <ele>108.723179929937</ele>
        <time>2009-12-23T12:51:36</time>
        <name>WPT 020</name>
        <desc />
      </trkpt>
      <trkpt lat="53.850663113" lon="-1.829072199">
        <ele>107.505053042793</ele>
        <time>2009-12-23T12:51:36</time>
        <name>WPT 019</name>
        <desc />
      </trkpt>
      <trkpt lat="53.85052865" lon="-1.829423682">
        <ele>103.205730055532</ele>
        <time>2009-12-23T12:51:36</time>
        <name>WPT 018</name>
        <desc />
      </trkpt>
      <trkpt lat="53.849480423" lon="-1.829375305">
        <ele>95.1732707111766</ele>
        <time>2009-12-23T12:51:36</time>
        <name>WPT 017</name>
        <desc />
      </trkpt>
      <trkpt lat="53.849782093" lon="-1.829900597">
        <ele>93.8015890418457</ele>
        <time>2009-12-23T12:51:36</time>
        <name>WPT 016</name>
        <desc />
      </trkpt>
      <trkpt lat="53.849140133" lon="-1.830956348">
        <ele>85.6763387484935</ele>
        <time>2009-12-23T12:51:36</time>
        <name>WPT 015</name>
        <desc />
      </trkpt>
      <trkpt lat="53.849140553" lon="-1.831254632">
        <ele>84.7447502140289</ele>
        <time>2009-12-23T12:51:36</time>
        <name>WPT 014</name>
        <desc />
      </trkpt>
      <trkpt lat="53.848633198" lon="-1.832064038">
        <ele>85.6650225843139</ele>
        <time>2009-12-23T12:51:36</time>
        <name>WPT 013</name>
        <desc />
      </trkpt>
      <trkpt lat="53.848425831" lon="-1.832205361">
        <ele>86.6258263433979</ele>
        <time>2009-12-23T12:51:36</time>
        <name>WPT 012</name>
        <desc />
      </trkpt>
      <trkpt lat="53.848426321" lon="-1.832556277">
        <ele>86.9833036253768</ele>
        <time>2009-12-23T12:51:36</time>
        <name>WPT 011</name>
        <desc />
      </trkpt>
      <trkpt lat="53.847907949" lon="-1.832944476">
        <ele>88.8890749202113</ele>
        <time>2009-12-23T12:51:36</time>
        <name>WPT 010</name>
        <desc />
      </trkpt>
      <trkpt lat="53.847950826" lon="-1.833927115">
        <ele>88.9812701288861</ele>
        <time>2009-12-23T12:51:36</time>
        <name>WPT 009</name>
        <desc />
      </trkpt>
      <trkpt lat="53.847650558" lon="-1.834402159">
        <ele>89.2292764018214</ele>
        <time>2009-12-23T12:51:36</time>
        <name>WPT 008</name>
        <desc />
      </trkpt>
      <trkpt lat="53.847620128" lon="-1.834946442">
        <ele>90.3032776576711</ele>
        <time>2009-12-23T12:51:36</time>
        <name>WPT 007</name>
        <desc />
      </trkpt>
      <trkpt lat="53.847776858" lon="-1.835682868">
        <ele>91.7579553716764</ele>
        <time>2009-12-23T12:51:36</time>
        <name>WPT 006</name>
        <desc />
      </trkpt>
      <trkpt lat="53.8479248112918" lon="-1.83615553653595">
        <ele>92.4871623371294</ele>
        <time>2009-12-23T12:51:36</time>
        <name>WPT 005</name>
        <desc />
      </trkpt>
      <trkpt lat="53.8481417244688" lon="-1.83703630411648">
        <ele>92.9810755771038</ele>
        <time>2009-12-23T12:51:36</time>
        <name>WPT 004</name>
        <desc />
      </trkpt>
      <trkpt lat="53.8486274905046" lon="-1.83733842596213">
        <ele>90.6597360761778</ele>
        <time>2009-12-23T12:51:36</time>
        <name>WPT 003</name>
        <desc />
      </trkpt>
      <extensions>
        <drawing v="True" pv="False" pw="4" pc="255|255|255" pt="0" lv="True" lw="4" lc="255|0|0" lt="0" ls="0" lcs="3" fc="255|255|255" ft="120" fs="-1" fsc="0|0|0" xmlns="" />
      </extensions>
    </trkseg>
  </trk>
</gpx>